New York, NY (10012)

7:09 AM EDT on September 22, 2014 (GMT -0400)
Murray Hill | Change Station
CLOSE
Current Station
Personal Weather Station
Location: New York, NY
Elevation: 98 ft
Nearby Weather Stations

Elev 98 ft 40.75 °N, 73.98 °W | Updated 7 seconds ago

Clear
Clear
64.0 °F
Feels Like 64.0 °F
N
2.0
Wind Variable Wind from WNW
Gusts 12.0 mph

Today
High -- | Low -- °F
--% Chance of Precip.
Yesterday
High -- | Low -- °F
Precip. -- in
6:43 AM 6:53 PM
Waning Crescent, 3% visible
Pressure 29.77 in
Visibility 10.0 miles
Clouds Clear
Dew Point 55 °F
Humidity 73%
Rainfall 0.01 in
Snow Depth Not available.
UV 0 out of 12
Pollen 2.60 out of 12
PM2.5 Good
Flu Activity Not available.
METAR KNYC 221051Z AUTO 27006KT 10SM CLR 18/12 A2980 RMK AO2 SLP080 T01780117

More Conditions Fewer Conditions

Pressure 29.77 in
Visibility 10.0 miles
Clouds Clear
Dew Point 55 °F
Humidity 73%
Rainfall 0.01 in
Snow Depth Not available.
UV 0 out of 12
Pollen 2.60 out of 12
PM2.5 Good
Flu Activity Not available.
METAR KNYC 221051Z AUTO 27006KT 10SM CLR 18/12 A2980 RMK AO2 SLP080 T01780117

More Conditions Fewer Conditions

10-Day Weather Forecast

Almanac

Astronomy

Sep. 22, 2014 Rise Set
Actual Time 6:43 AM EDT 6:53 PM EDT
Civil Twilight 6:16 AM EDT 7:20 PM EDT
Nautical Twilight 5:44 AM EDT 7:52 PM EDT
Astronomical Twilight 5:11 AM EDT 8:24 PM EDT
Moon 5:09 AM EDT 5:59 PM EDT
Length of Visible Light 13h 04m
Length of Day
12h 09m
Tomorrow will be 2m 41s shorter.
Waning Crescent, 3% of the Moon is Illuminated
Today
Waning Crescent
Sep 24
New
Oct 1
First Quarter
Oct 8
Full
Oct 15
Last Quarter

Today's Extremes

State Highs State Lows

Community

WunderPhotos

Upload Photos

1,755,409 photos uploaded!

Nearby

Air Quality

  Air Quality AQ Index Pollutant
Yesterday Good
PM2.5
Yesterday Good
OZONE
Current Good
PM2.5
Monday Good
PM2.5
Monday Good
OZONE

Snow Depth

Station Depth Elevation
No new snow has been reported.

Earthquake Activity

City Distance Mag. Time & Date
No recent earthquake activity has been reported nearby.
Minimum magnitude displayed is 2.5.

Coastal Water Temperatures

Place Temperature
Sandy Hook, NJ 69.1 °F
The Battery, NY 71.1 °F
Bergen Point West Reach, NJ 70.0 °F
Kings Point, NY 68.0 °F

Nearby Weather Stations